Time;durP1;ratioP1;P1;durP2;ratioP2;P2;SDS_P1;SDS_P2;PMS_P1;PMS_P2;Temp;Humidity;BMP_temperature;BMP_pressure;BME280_temperature;BME280_humidity;BME280_pressure;Samples;Min_cycle;Max_cycle;Signal;HPM_P1;HPM_P2
2022/07/20 00:02:08;;;;;;;8.03;3.97;;;;;;;;;;5034354;28;20428;-72
2022/07/20 00:04:33;;;;;;;5.20;3.00;;;;;;;;;;5031578;28;20610;-72
2022/07/20 00:06:59;;;;;;;9.83;3.40;;;;;;;;;;5033970;28;20185;-71
2022/07/20 00:12:08;;;;;;;5.43;3.10;;;;;;;;;;5023958;28;20282;-72
2022/07/20 00:14:33;;;;;;;5.47;3.65;;;;;;;;;;5031282;28;20220;-72
2022/07/20 00:16:58;;;;;;;4.27;3.27;;;;;;;;;;5031037;28;20182;-71
2022/07/20 00:19:23;;;;;;;5.10;3.53;;;;;;;;;;5030311;28;20503;-72
2022/07/20 00:21:49;;;;;;;5.68;3.42;;;;;;;;;;5033215;28;20215;-72
2022/07/20 00:24:14;;;;;;;8.05;3.72;;;;;;;;;;5030835;28;20214;-71
2022/07/20 00:26:39;;;;;;;4.33;3.30;;;;;;;;;;5040021;28;20259;-71
2022/07/20 00:29:04;;;;;;;6.68;3.40;;;;;;;;;;5039493;28;20931;-71
2022/07/20 00:31:29;;;;;;;4.35;3.17;;;;;;;;;;5037341;28;20671;-71
2022/07/20 00:33:55;;;;;;;4.37;3.37;;;;;;;;;;5028871;28;20178;-71
2022/07/20 00:36:20;;;;;;;4.97;3.43;;;;;;;;;;5032201;28;20851;-72
2022/07/20 00:38:45;;;;;;;7.10;3.25;;;;;;;;;;5030898;28;20435;-71
2022/07/20 00:41:11;;;;;;;4.85;3.53;;;;;;;;;;5029417;28;20210;-71
2022/07/20 00:43:55;;;;;;;6.70;3.60;;;;;;;;;;5030277;28;20182;-71
2022/07/20 00:46:20;;;;;;;5.50;3.83;;;;;;;;;;5030868;28;20567;-71
2022/07/20 00:48:46;;;;;;;6.68;4.13;;;;;;;;;;5040884;28;20180;-71
2022/07/20 00:51:11;;;;;;;6.13;3.53;;;;;;;;;;5029348;28;20198;-72
2022/07/20 00:53:36;;;;;;;7.57;4.35;;;;;;;;;;5036061;28;20788;-71
2022/07/20 00:56:02;;;;;;;7.23;3.93;;;;;;;;;;5030205;28;20186;-71
2022/07/20 00:58:27;;;;;;;5.00;3.95;;;;;;;;;;5036145;28;20803;-71
2022/07/20 01:00:52;;;;;;;6.50;3.83;;;;;;;;;;5030572;28;20208;-72
2022/07/20 01:03:17;;;;;;;7.93;3.63;;;;;;;;;;5038537;28;20956;-71
2022/07/20 01:05:42;;;;;;;4.63;3.83;;;;;;;;;;5038851;28;20446;-72
2022/07/20 01:08:07;;;;;;;6.43;4.10;;;;;;;;;;5035463;28;20509;-72
2022/07/20 01:10:33;;;;;;;6.07;4.00;;;;;;;;;;5029537;28;20835;-72
2022/07/20 01:12:58;;;;;;;5.40;3.92;;;;;;;;;;5037995;28;20430;-72
2022/07/20 01:15:23;;;;;;;7.70;4.43;;;;;;;;;;5030002;28;20178;-72
2022/07/20 01:17:48;;;;;;;7.70;4.00;;;;;;;;;;5030562;28;21003;-72
2022/07/20 01:20:15;;;;;;;7.30;4.00;;;;;;;;;;5028924;28;20198;-72
2022/07/20 01:22:41;;;;;;;6.45;3.72;;;;;;;;;;5040345;28;20542;-72
2022/07/20 01:25:06;;;;;;;8.10;4.22;;;;;;;;;;5041687;28;20652;-72
2022/07/20 01:27:32;;;;;;;6.13;3.97;;;;;;;;;;5030693;28;20558;-72
2022/07/20 01:29:58;;;;;;;6.35;4.10;;;;;;;;;;5029773;28;20193;-72
2022/07/20 01:32:23;;;;;;;7.15;3.92;;;;;;;;;;5035805;28;20221;-72
2022/07/20 01:34:48;;;;;;;4.43;4.03;;;;;;;;;;5036912;28;20706;-72
2022/07/20 01:37:13;;;;;;;4.75;3.67;;;;;;;;;;5029647;28;20501;-72
2022/07/20 01:39:38;;;;;;;6.57;4.30;;;;;;;;;;5035753;28;20181;-71
2022/07/20 01:42:04;;;;;;;4.60;3.70;;;;;;;;;;5031177;28;20451;-72
2022/07/20 01:44:29;;;;;;;5.93;3.80;;;;;;;;;;5037572;28;20849;-72
2022/07/20 01:46:54;;;;;;;11.23;3.95;;;;;;;;;;5026023;28;20178;-71
2022/07/20 01:49:19;;;;;;;8.70;3.90;;;;;;;;;;5041396;28;20624;-72
2022/07/20 01:51:45;;;;;;;6.20;4.07;;;;;;;;;;5039767;28;20257;-71
2022/07/20 01:54:10;;;;;;;8.55;3.85;;;;;;;;;;5040695;28;20204;-72
2022/07/20 01:56:36;;;;;;;5.95;4.35;;;;;;;;;;5028234;28;20178;-71
2022/07/20 01:59:01;;;;;;;4.53;4.10;;;;;;;;;;5029232;28;20201;-72
2022/07/20 02:01:26;;;;;;;6.13;4.33;;;;;;;;;;5029831;28;20218;-71
2022/07/20 02:03:51;;;;;;;9.07;4.63;;;;;;;;;;5040419;28;20438;-71
2022/07/20 02:06:16;;;;;;;7.40;4.00;;;;;;;;;;5038635;28;20830;-70
2022/07/20 02:08:42;;;;;;;9.20;4.20;;;;;;;;;;5038706;28;20427;-71
2022/07/20 02:11:07;;;;;;;7.78;3.80;;;;;;;;;;5046728;28;20454;-71
2022/07/20 02:13:35;;;;;;;7.93;4.70;;;;;;;;;;5047118;28;20574;-71
2022/07/20 02:16:15;;;;;;;11.90;4.30;;;;;;;;;;5031512;28;20186;-71
2022/07/20 02:18:48;;;;;;;9.60;4.25;;;;;;;;;;5033765;28;20249;-72
2022/07/20 02:21:15;;;;;;;6.35;4.60;;;;;;;;;;5039774;28;20320;-72
2022/07/20 02:23:41;;;;;;;8.00;4.10;;;;;;;;;;5033580;28;20236;-72
2022/07/20 02:26:06;;;;;;;7.93;5.40;;;;;;;;;;5032884;28;20594;-71
2022/07/20 02:28:31;;;;;;;8.85;4.45;;;;;;;;;;5038240;28;20257;-72
2022/07/20 02:30:56;;;;;;;9.10;4.30;;;;;;;;;;5037668;28;20206;-72
2022/07/20 02:33:21;;;;;;;7.93;5.05;;;;;;;;;;5045858;28;20395;-72
2022/07/20 02:35:47;;;;;;;9.73;6.55;;;;;;;;;;5032654;28;20227;-71
2022/07/20 02:38:12;;;;;;;11.50;7.20;;;;;;;;;;5036298;28;20227;-72
2022/07/20 02:40:37;;;;;;;9.68;7.35;;;;;;;;;;5030026;28;20272;-72
2022/07/20 02:43:02;;;;;;;11.85;7.78;;;;;;;;;;5033960;28;20654;-72
2022/07/20 02:45:28;;;;;;;10.48;8.45;;;;;;;;;;5037486;28;20185;-72
2022/07/20 02:47:54;;;;;;;14.43;9.30;;;;;;;;;;5044720;28;20178;-72
2022/07/20 02:50:19;;;;;;;13.40;9.35;;;;;;;;;;5040961;28;20210;-72
2022/07/20 02:52:44;;;;;;;16.60;10.95;;;;;;;;;;5032745;28;20640;-72
2022/07/20 02:55:10;;;;;;;17.38;12.40;;;;;;;;;;5036579;28;20197;-72
2022/07/20 02:57:35;;;;;;;17.65;12.48;;;;;;;;;;5032459;28;20179;-71
2022/07/20 03:00:01;;;;;;;17.23;13.50;;;;;;;;;;5031136;28;20683;-72
2022/07/20 03:02:26;;;;;;;20.58;13.35;;;;;;;;;;5040151;28;20651;-72
2022/07/20 03:04:51;;;;;;;20.52;13.48;;;;;;;;;;5058451;28;20174;-72
2022/07/20 03:07:16;;;;;;;23.93;15.03;;;;;;;;;;5039964;28;20183;-72
2022/07/20 03:09:42;;;;;;;22.85;17.75;;;;;;;;;;5031791;28;20459;-71
2022/07/20 03:12:08;;;;;;;24.60;17.52;;;;;;;;;;5033687;28;20194;-72
2022/07/20 03:14:33;;;;;;;22.65;17.67;;;;;;;;;;5031888;28;20640;-72
2022/07/20 03:16:58;;;;;;;27.08;17.98;;;;;;;;;;5038443;28;20202;-72
2022/07/20 03:19:23;;;;;;;28.27;19.67;;;;;;;;;;5029181;28;20675;-72
2022/07/20 03:21:48;;;;;;;26.23;20.30;;;;;;;;;;5033671;28;20486;-72
2022/07/20 03:24:14;;;;;;;25.47;19.63;;;;;;;;;;5044882;28;20219;-72
2022/07/20 03:26:39;;;;;;;30.38;20.33;;;;;;;;;;5037629;28;20916;-73
2022/07/20 03:29:04;;;;;;;27.90;22.23;;;;;;;;;;5045686;28;20178;-72
2022/07/20 03:31:29;;;;;;;28.77;21.40;;;;;;;;;;5045303;28;20259;-72
2022/07/20 03:33:55;;;;;;;29.57;21.53;;;;;;;;;;5032860;28;20664;-72
2022/07/20 03:36:20;;;;;;;31.53;23.03;;;;;;;;;;5032328;28;20432;-72
2022/07/20 03:38:45;;;;;;;32.63;23.87;;;;;;;;;;5038040;28;20794;-72
2022/07/20 03:41:10;;;;;;;30.90;24.40;;;;;;;;;;5030363;28;20506;-72
2022/07/20 03:43:35;;;;;;;34.03;26.42;;;;;;;;;;5032612;28;20423;-73
2022/07/20 03:46:01;;;;;;;33.97;24.67;;;;;;;;;;5043774;28;20190;-72
2022/07/20 03:48:26;;;;;;;32.27;25.60;;;;;;;;;;5036086;28;20518;-72
2022/07/20 03:50:52;;;;;;;35.92;25.13;;;;;;;;;;5029730;28;20992;-73
2022/07/20 03:53:17;;;;;;;36.25;26.58;;;;;;;;;;5030368;28;20640;-72
2022/07/20 03:55:42;;;;;;;36.63;28.23;;;;;;;;;;5032571;28;20190;-72
2022/07/20 03:58:07;;;;;;;34.23;27.93;;;;;;;;;;5037565;28;20420;-72
2022/07/20 04:00:33;;;;;;;33.53;25.98;;;;;;;;;;5032114;28;20531;-72
2022/07/20 04:02:58;;;;;;;37.75;27.40;;;;;;;;;;5044096;28;20178;-72
2022/07/20 04:05:23;;;;;;;37.67;28.58;;;;;;;;;;5040044;28;20174;-72
2022/07/20 04:07:48;;;;;;;35.50;28.95;;;;;;;;;;5040132;28;20253;-72
2022/07/20 04:10:14;;;;;;;35.10;29.03;;;;;;;;;;5031971;28;20695;-72
2022/07/20 04:12:39;;;;;;;41.78;30.77;;;;;;;;;;5037261;28;20486;-71
2022/07/20 04:15:04;;;;;;;39.03;30.90;;;;;;;;;;5030920;28;20184;-72
2022/07/20 04:17:30;;;;;;;34.97;30.23;;;;;;;;;;5034735;28;20265;-72
2022/07/20 04:19:55;;;;;;;35.53;29.77;;;;;;;;;;5029039;28;20202;-72
2022/07/20 04:22:20;;;;;;;39.07;31.90;;;;;;;;;;5038295;28;20525;-72
2022/07/20 04:24:45;;;;;;;43.03;33.10;;;;;;;;;;5035477;28;20805;-72
2022/07/20 04:27:10;;;;;;;37.70;31.15;;;;;;;;;;5039089;28;20472;-72
2022/07/20 04:29:36;;;;;;;38.03;30.75;;;;;;;;;;5041443;28;20181;-72
2022/07/20 04:32:01;;;;;;;44.30;31.90;;;;;;;;;;5034072;28;20206;-72
2022/07/20 04:34:27;;;;;;;34.63;30.58;;;;;;;;;;5030037;28;20541;-72
2022/07/20 04:36:53;;;;;;;34.90;29.08;;;;;;;;;;5033845;28;20664;-72
2022/07/20 04:39:18;;;;;;;35.40;31.60;;;;;;;;;;5036389;28;20461;-72
2022/07/20 04:41:43;;;;;;;34.78;30.95;;;;;;;;;;5029568;28;20213;-72
2022/07/20 04:44:08;;;;;;;40.30;31.98;;;;;;;;;;5035983;28;20177;-72
2022/07/20 04:46:34;;;;;;;34.53;30.85;;;;;;;;;;5041045;28;20177;-72
2022/07/20 04:48:59;;;;;;;37.00;30.75;;;;;;;;;;5037902;28;20656;-72
2022/07/20 04:51:24;;;;;;;38.55;30.60;;;;;;;;;;5030419;28;20235;-72
2022/07/20 04:53:49;;;;;;;36.27;30.83;;;;;;;;;;5038264;28;20188;-72
2022/07/20 04:56:16;;;;;;;36.95;30.83;;;;;;;;;;5035948;28;20422;-72
2022/07/20 04:58:41;;;;;;;32.78;29.20;;;;;;;;;;5041420;28;20172;-71
2022/07/20 05:01:06;;;;;;;38.23;29.80;;;;;;;;;;5030329;28;20205;-72
2022/07/20 05:03:31;;;;;;;36.27;30.17;;;;;;;;;;5039339;28;20431;-73
2022/07/20 05:05:57;;;;;;;33.15;28.95;;;;;;;;;;5038313;28;20793;-72
2022/07/20 05:08:22;;;;;;;37.03;30.75;;;;;;;;;;5030487;28;20221;-72
2022/07/20 05:10:47;;;;;;;32.67;29.17;;;;;;;;;;5028519;28;20209;-72
2022/07/20 05:13:12;;;;;;;34.90;30.73;;;;;;;;;;5038645;28;20450;-72
2022/07/20 05:15:37;;;;;;;42.13;31.67;;;;;;;;;;5030466;28;20431;-72
2022/07/20 05:18:03;;;;;;;38.03;31.43;;;;;;;;;;5030385;28;20183;-72
2022/07/20 05:20:28;;;;;;;41.20;33.47;;;;;;;;;;5029397;28;20447;-72
2022/07/20 05:22:53;;;;;;;35.70;31.40;;;;;;;;;;5032809;28;20461;-72
2022/07/20 05:25:18;;;;;;;35.45;30.98;;;;;;;;;;5040163;28;20560;-72
2022/07/20 05:27:44;;;;;;;38.67;32.10;;;;;;;;;;5029962;28;20181;-72
2022/07/20 05:30:09;;;;;;;39.23;31.60;;;;;;;;;;5030651;28;20280;-72
2022/07/20 05:32:34;;;;;;;35.33;30.88;;;;;;;;;;5030808;28;20996;-72
2022/07/20 05:35:00;;;;;;;36.17;29.97;;;;;;;;;;5031617;28;20193;-72
2022/07/20 05:37:25;;;;;;;35.70;29.58;;;;;;;;;;5042097;28;20517;-72
2022/07/20 05:39:50;;;;;;;39.10;31.90;;;;;;;;;;5036711;28;20202;-72
2022/07/20 05:42:15;;;;;;;40.03;31.38;;;;;;;;;;5043736;28;20884;-72
2022/07/20 05:44:40;;;;;;;35.70;30.42;;;;;;;;;;5036777;28;20184;-72
2022/07/20 05:47:06;;;;;;;38.63;28.23;;;;;;;;;;5039779;28;20202;-72
2022/07/20 05:49:32;;;;;;;34.13;29.58;;;;;;;;;;5037047;28;20427;-71
2022/07/20 05:51:57;;;;;;;39.20;30.55;;;;;;;;;;5035188;28;20245;-72
2022/07/20 05:54:23;;;;;;;34.38;29.05;;;;;;;;;;5037900;28;20676;-71
2022/07/20 05:56:48;;;;;;;35.55;28.88;;;;;;;;;;5036229;28;20182;-71
